MSC Mandraki — SZUH — position and weather

sailwx.info

Track history (hours):
 
Tides and Currents Weather Stations Pressure Air Temp Water Temp Dewpoint Dewpoint Depression Visibility Wind Speed Wind Dir Waves Ship Positions

MSC Mandraki

Last reported at 2015-Jul-29 04:32 UTC. Time now 2015-Jul-29 04:55 UTC.
Position N 40°30' W 073°39'.

Length 294 m; draft 9.3 m.

Type: Ship. MMSI: 240265000.

Date/timePositionNaut miles runAvg speedWind from/ knotsBaromVisibWave heightAir tempDewpointWater temp
2015-Jul-29 04:32N 40°30' W 073°39'0 0.0
2015-Jul-29 03:32N 40°30' W 073°39'0 0.0
2015-Jul-29 02:32N 40°30' W 073°39'0 0.0
2015-Jul-29 01:32N 40°30' W 073°39'0 0.0
2015-Jul-29 00:32N 40°30' W 073°39'0 0.0
2015-Jul-28 23:32N 40°30' W 073°39'0 0.0
2015-Jul-28 22:32N 40°30' W 073°39'0 0.0
2015-Jul-28 21:32N 40°30' W 073°39'0 0.0
2015-Jul-28 20:32N 40°30' W 073°39'0 0.0
2015-Jul-28 19:32N 40°30' W 073°39'0 0.0
2015-Jul-28 18:32N 40°30' W 073°39'0 0.0
2015-Jul-28 17:29N 40°30' W 073°39'0 0.1
2015-Jul-28 16:26N 40°30' W 073°39'0 0.0
2015-Jul-28 15:29N 40°30' W 073°39'0 0.0
2015-Jul-28 14:08N 40°30' W 073°39'0 0.0
2015-Jul-28 11:32N 40°30' W 073°39'0 0.0
2015-Jul-28 10:32N 40°30' W 073°39'0 0.0
2015-Jul-28 09:32N 40°30' W 073°39'0 0.0
2015-Jul-28 08:29N 40°30' W 073°39'0 0.0
2015-Jul-28 07:32N 40°30' W 073°39'0 0.0
2015-Jul-28 06:32N 40°30' W 073°39'0 0.0
2015-Jul-28 05:29N 40°30' W 073°39'0 0.0
2015-Jul-28 04:32N 40°30' W 073°39'0 0.0
2015-Jul-28 03:32N 40°30' W 073°39'0 0.1
2015-Jul-28 02:23N 40°30' W 073°39'3 3.6
2015-Jul-28 01:33N 40°28' W 073°42'1211.9
2015-Jul-28 00:34N 40°16' W 073°46'1615.6
2015-Jul-27 23:34N 40°01' W 073°43'1615.7
2015-Jul-27 22:34N 39°45' W 073°40'1615.7
2015-Jul-27 21:34N 39°30' W 073°40'1515.3
2015-Jul-27 20:33N 39°14' W 073°43'1915.4
2015-Jul-27 19:18N 38°56' W 073°52'2815.6
2015-Jul-27 17:31N 38°30' W 074°04'6515.7
2015-Jul-27 13:22N 37°27' W 074°24'1315.4
2015-Jul-27 12:31N 37°14' W 074°27'7313.8
2015-Jul-27 07:12N 36°55' W 075°56'1211.6
2015-Jul-27 06:11N 37°04' W 076°06'1215.6
2015-Jul-27 05:24N 37°16' W 076°07'1616.6
2015-Jul-27 04:25N 37°32' W 076°02'1315.8
2015-Jul-27 03:34N 37°44' W 076°11'1616.0
2015-Jul-27 02:34N 37°60' W 076°13'1716.5
2015-Jul-27 01:33N 38°16' W 076°17'1716.6
2015-Jul-27 00:33N 38°31' W 076°25'1816.6
2015-Jul-26 23:27N 38°50' W 076°24'1415.7
2015-Jul-26 22:33N 39°04' W 076°23'1212.0
2015-Jul-26 21:33N 39°13' W 076°32'2 1.7
2015-Jul-26 20:31N 39°15' W 076°33'0 0.0
2015-Jul-26 19:31N 39°15' W 076°33'0 0.1
2015-Jul-26 18:31N 39°15' W 076°33'0 0.0
2015-Jul-26 17:31N 39°15' W 076°33'0 0.0
2015-Jul-26 16:31N 39°15' W 076°33'0 0.0
2015-Jul-26 15:31N 39°15' W 076°33'0 0.0
2015-Jul-26 14:31N 39°15' W 076°33'0 0.0
2015-Jul-26 13:31N 39°15' W 076°33'0 0.0
2015-Jul-26 12:31N 39°15' W 076°33'0 0.0
2015-Jul-26 11:31N 39°15' W 076°33'0 0.0
2015-Jul-26 10:31N 39°15' W 076°33'0 0.0
2015-Jul-26 09:31N 39°15' W 076°33'0 0.0
2015-Jul-26 08:31N 39°15' W 076°33'0 0.0
2015-Jul-26 07:31N 39°15' W 076°33'0 0.0
2015-Jul-26 06:28N 39°15' W 076°33'0 0.0
2015-Jul-26 05:31N 39°15' W 076°33'0 0.0
2015-Jul-26 04:31N 39°15' W 076°33'2 2.4
2015-Jul-26 03:33N 39°13' W 076°32'1110.6
2015-Jul-26 02:34N 39°04' W 076°24'1615.6
2015-Jul-26 01:33N 38°49' W 076°25'3516.0
2015-Jul-25 23:21N 38°14' W 076°16'1316.3
2015-Jul-25 22:32N 38°01' W 076°12'101 6.7
2015-Jul-25 07:23N 38°23' W 074°07'1415.4
2015-Jul-25 06:26N 38°37' W 074°04'1415.3
2015-Jul-25 05:30N 38°51' W 073°59'1415.2
2015-Jul-25 04:33N 39°05' W 073°55'1515.3
2015-Jul-25 03:33N 39°20' W 073°53'1515.3
2015-Jul-25 02:33N 39°36' W 073°53'1515.2
2015-Jul-25 01:33N 39°51' W 073°52'1515.3
2015-Jul-25 00:33N 40°06' W 073°50'1713.9
2015-Jul-24 23:22N 40°23' W 073°49'5 6.7
2015-Jul-24 22:33N 40°28' W 073°51'1413.9
2015-Jul-24 21:34N 40°38' W 074°03'4 4.4
2015-Jul-24 20:34N 40°40' W 074°08'1 0.9
2015-Jul-24 19:33N 40°41' W 074°09'0 0.0
2015-Jul-24 18:33N 40°41' W 074°09'0 0.0
2015-Jul-24 17:30N 40°41' W 074°09'0 0.0
2015-Jul-24 16:33N 40°41' W 074°09'0 0.0
2015-Jul-24 15:33N 40°41' W 074°09'0 0.0
2015-Jul-24 14:30N 40°41' W 074°09'0 0.0
2015-Jul-24 13:33N 40°41' W 074°09'0 0.0
2015-Jul-24 12:33N 40°41' W 074°09'0 0.0
2015-Jul-24 11:33N 40°41' W 074°09'0 0.0
2015-Jul-24 10:33N 40°41' W 074°09'0 0.0
2015-Jul-24 09:33N 40°41' W 074°09'0 0.0
2015-Jul-24 08:33N 40°41' W 074°09'0 0.0
2015-Jul-24 07:33N 40°41' W 074°09'0 0.0
2015-Jul-24 06:33N 40°41' W 074°09'0 0.0
2015-Jul-24 05:33N 40°41' W 074°09'0 0.0
2015-Jul-24 04:33N 40°41' W 074°09'0 0.0
2015-Jul-24 03:33N 40°41' W 074°09'0 0.0
2015-Jul-24 02:33N 40°41' W 074°09'0 0.0
2015-Jul-24 01:33N 40°41' W 074°09'0 0.3
2015-Jul-24 00:33N 40°41' W 074°09'3 3.0
2015-Jul-23 23:33N 40°39' W 074°06'6 6.3
2015-Jul-23 22:33N 40°34' W 074°02'1211.8
2015-Jul-23 21:33N 40°27' W 073°48'8 8.4
2015-Jul-23 20:33N 40°28' W 073°37'3510.8
2015-Jul-23 17:21N 40°30' W 072°52'1616.5
2015-Jul-23 16:22N 40°31' W 072°31'1518.3
2015-Jul-23 15:33N 40°31' W 072°11'1918.5
2015-Jul-23 14:33N 40°31' W 071°47'1817.8
2015-Jul-23 13:33N 40°32' W 071°23'1010.3
2015-Jul-23 12:33N 40°32' W 071°10'2120.6
2015-Jul-23 11:33N 40°33' W 070°43'2020.4
2015-Jul-23 10:33N 40°33' W 070°16'2020.4
2015-Jul-23 09:33N 40°33' W 069°49'2020.1
2015-Jul-23 08:33N 40°34' W 069°22'1919.6
2015-Jul-23 07:33N 40°31' W 068°57'2020.0
2015-Jul-23 06:33N 40°27' W 068°31'  
Track history (hours):
 
Tides and Currents Weather Stations Pressure Air Temp Water Temp Dewpoint Dewpoint Depression Visibility Wind Speed Wind Dir Waves Ship Positions

MSC Mandraki

Last reported at 2015-Jul-29 04:32 UTC. Time now 2015-Jul-29 04:55 UTC.
Position N 40°30' W 073°39'.

Length 294 m; draft 9.3 m.

Type: Ship. MMSI: 240265000.

Date/timePositionNaut miles runAvg speedWind from/ knotsBaromVisibWave heightAir tempDewpointWater temp
2015-Jul-29 04:32N 40°30' W 073°39'0 0.0
2015-Jul-29 03:32N 40°30' W 073°39'0 0.0
2015-Jul-29 02:32N 40°30' W 073°39'0 0.0
2015-Jul-29 01:32N 40°30' W 073°39'0 0.0
2015-Jul-29 00:32N 40°30' W 073°39'0 0.0
2015-Jul-28 23:32N 40°30' W 073°39'0 0.0
2015-Jul-28 22:32N 40°30' W 073°39'0 0.0
2015-Jul-28 21:32N 40°30' W 073°39'0 0.0
2015-Jul-28 20:32N 40°30' W 073°39'0 0.0
2015-Jul-28 19:32N 40°30' W 073°39'0 0.0
2015-Jul-28 18:32N 40°30' W 073°39'0 0.0
2015-Jul-28 17:29N 40°30' W 073°39'0 0.1
2015-Jul-28 16:26N 40°30' W 073°39'0 0.0
2015-Jul-28 15:29N 40°30' W 073°39'0 0.0
2015-Jul-28 14:08N 40°30' W 073°39'0 0.0
2015-Jul-28 11:32N 40°30' W 073°39'0 0.0
2015-Jul-28 10:32N 40°30' W 073°39'0 0.0
2015-Jul-28 09:32N 40°30' W 073°39'0 0.0
2015-Jul-28 08:29N 40°30' W 073°39'0 0.0
2015-Jul-28 07:32N 40°30' W 073°39'0 0.0
2015-Jul-28 06:32N 40°30' W 073°39'0 0.0
2015-Jul-28 05:29N 40°30' W 073°39'0 0.0
2015-Jul-28 04:32N 40°30' W 073°39'0 0.0
2015-Jul-28 03:32N 40°30' W 073°39'0 0.1
2015-Jul-28 02:23N 40°30' W 073°39'3 3.6
2015-Jul-28 01:33N 40°28' W 073°42'1211.9
2015-Jul-28 00:34N 40°16' W 073°46'1615.6
2015-Jul-27 23:34N 40°01' W 073°43'1615.7
2015-Jul-27 22:34N 39°45' W 073°40'1615.7
2015-Jul-27 21:34N 39°30' W 073°40'1515.3
2015-Jul-27 20:33N 39°14' W 073°43'1915.4
2015-Jul-27 19:18N 38°56' W 073°52'2815.6
2015-Jul-27 17:31N 38°30' W 074°04'6515.7
2015-Jul-27 13:22N 37°27' W 074°24'1315.4
2015-Jul-27 12:31N 37°14' W 074°27'7313.8
2015-Jul-27 07:12N 36°55' W 075°56'1211.6
2015-Jul-27 06:11N 37°04' W 076°06'1215.6
2015-Jul-27 05:24N 37°16' W 076°07'1616.6
2015-Jul-27 04:25N 37°32' W 076°02'1315.8
2015-Jul-27 03:34N 37°44' W 076°11'1616.0
2015-Jul-27 02:34N 37°60' W 076°13'1716.5
2015-Jul-27 01:33N 38°16' W 076°17'1716.6
2015-Jul-27 00:33N 38°31' W 076°25'1816.6
2015-Jul-26 23:27N 38°50' W 076°24'1415.7
2015-Jul-26 22:33N 39°04' W 076°23'1212.0
2015-Jul-26 21:33N 39°13' W 076°32'2 1.7
2015-Jul-26 20:31N 39°15' W 076°33'0 0.0
2015-Jul-26 19:31N 39°15' W 076°33'0 0.1
2015-Jul-26 18:31N 39°15' W 076°33'0 0.0
2015-Jul-26 17:31N 39°15' W 076°33'0 0.0
2015-Jul-26 16:31N 39°15' W 076°33'0 0.0
2015-Jul-26 15:31N 39°15' W 076°33'0 0.0
2015-Jul-26 14:31N 39°15' W 076°33'0 0.0
2015-Jul-26 13:31N 39°15' W 076°33'0 0.0
2015-Jul-26 12:31N 39°15' W 076°33'0 0.0
2015-Jul-26 11:31N 39°15' W 076°33'0 0.0
2015-Jul-26 10:31N 39°15' W 076°33'0 0.0
2015-Jul-26 09:31N 39°15' W 076°33'0 0.0
2015-Jul-26 08:31N 39°15' W 076°33'0 0.0
2015-Jul-26 07:31N 39°15' W 076°33'0 0.0
2015-Jul-26 06:28N 39°15' W 076°33'0 0.0
2015-Jul-26 05:31N 39°15' W 076°33'0 0.0
2015-Jul-26 04:31N 39°15' W 076°33'2 2.4
2015-Jul-26 03:33N 39°13' W 076°32'1110.6
2015-Jul-26 02:34N 39°04' W 076°24'1615.6
2015-Jul-26 01:33N 38°49' W 076°25'3516.0
2015-Jul-25 23:21N 38°14' W 076°16'1316.3
2015-Jul-25 22:32N 38°01' W 076°12'101 6.7
2015-Jul-25 07:23N 38°23' W 074°07'1415.4
2015-Jul-25 06:26N 38°37' W 074°04'1415.3
2015-Jul-25 05:30N 38°51' W 073°59'1415.2
2015-Jul-25 04:33N 39°05' W 073°55'1515.3
2015-Jul-25 03:33N 39°20' W 073°53'1515.3
2015-Jul-25 02:33N 39°36' W 073°53'1515.2
2015-Jul-25 01:33N 39°51' W 073°52'1515.3
2015-Jul-25 00:33N 40°06' W 073°50'1713.9
2015-Jul-24 23:22N 40°23' W 073°49'5 6.7
2015-Jul-24 22:33N 40°28' W 073°51'1413.9
2015-Jul-24 21:34N 40°38' W 074°03'4 4.4
2015-Jul-24 20:34N 40°40' W 074°08'1 0.9
2015-Jul-24 19:33N 40°41' W 074°09'0 0.0
2015-Jul-24 18:33N 40°41' W 074°09'0 0.0
2015-Jul-24 17:30N 40°41' W 074°09'0 0.0
2015-Jul-24 16:33N 40°41' W 074°09'0 0.0
2015-Jul-24 15:33N 40°41' W 074°09'0 0.0
2015-Jul-24 14:30N 40°41' W 074°09'0 0.0
2015-Jul-24 13:33N 40°41' W 074°09'0 0.0
2015-Jul-24 12:33N 40°41' W 074°09'0 0.0
2015-Jul-24 11:33N 40°41' W 074°09'0 0.0
2015-Jul-24 10:33N 40°41' W 074°09'0 0.0
2015-Jul-24 09:33N 40°41' W 074°09'0 0.0
2015-Jul-24 08:33N 40°41' W 074°09'0 0.0
2015-Jul-24 07:33N 40°41' W 074°09'0 0.0
2015-Jul-24 06:33N 40°41' W 074°09'0 0.0
2015-Jul-24 05:33N 40°41' W 074°09'0 0.0
2015-Jul-24 04:33N 40°41' W 074°09'0 0.0
2015-Jul-24 03:33N 40°41' W 074°09'0 0.0
2015-Jul-24 02:33N 40°41' W 074°09'0 0.0
2015-Jul-24 01:33N 40°41' W 074°09'0 0.3
2015-Jul-24 00:33N 40°41' W 074°09'3 3.0
2015-Jul-23 23:33N 40°39' W 074°06'6 6.3
2015-Jul-23 22:33N 40°34' W 074°02'1211.8
2015-Jul-23 21:33N 40°27' W 073°48'8 8.4
2015-Jul-23 20:33N 40°28' W 073°37'3510.8
2015-Jul-23 17:21N 40°30' W 072°52'1616.5
2015-Jul-23 16:22N 40°31' W 072°31'1518.3
2015-Jul-23 15:33N 40°31' W 072°11'1918.5
2015-Jul-23 14:33N 40°31' W 071°47'1817.8
2015-Jul-23 13:33N 40°32' W 071°23'1010.3
2015-Jul-23 12:33N 40°32' W 071°10'2120.6
2015-Jul-23 11:33N 40°33' W 070°43'2020.4
2015-Jul-23 10:33N 40°33' W 070°16'2020.4
2015-Jul-23 09:33N 40°33' W 069°49'2020.1
2015-Jul-23 08:33N 40°34' W 069°22'1919.6
2015-Jul-23 07:33N 40°31' W 068°57'2020.0
2015-Jul-23 06:33N 40°27' W 068°31'  

Dump ship's entire track history